Time;durP1;ratioP1;P1;durP2;ratioP2;P2;SDS_P1;SDS_P2;PMS_P1;PMS_P2;Temp;Humidity;BMP_temperature;BMP_pressure;BME280_temperature;BME280_humidity;BME280_pressure;Samples;Min_cycle;Max_cycle;Signal;HPM_P1;HPM_P2
2021/09/23 00:00:51;;;;;;;9.23;7.75;;;;;;;11.05;61.75;99813.44;5092694;28;20072;-72
2021/09/23 00:03:32;;;;;;;10.68;8.85;;;;;;;10.98;61.65;99813.94;5091450;28;20039;-72
2021/09/23 00:05:59;;;;;;;11.10;8.57;;;;;;;11.00;61.87;99808.81;5091639;28;20490;-72
2021/09/23 00:08:24;;;;;;;13.10;9.00;;;;;;;10.99;62.25;99815.56;5090654;28;20024;-72
2021/09/23 00:10:50;;;;;;;13.93;9.32;;;;;;;10.93;62.12;99812.13;5090652;28;20035;-72
2021/09/23 00:13:17;;;;;;;11.45;10.13;;;;;;;10.91;62.21;99816.38;5087828;28;20020;-72
2021/09/23 00:15:43;;;;;;;11.13;9.10;;;;;;;11.07;61.21;99811.94;5088162;28;20150;-72
2021/09/23 00:18:14;;;;;;;11.93;10.23;;;;;;;11.09;61.22;99811.59;5087408;28;20024;-72
2021/09/23 00:20:44;;;;;;;11.32;10.13;;;;;;;11.27;60.56;99811.56;5088195;28;20036;-72
2021/09/23 00:23:11;;;;;;;12.32;10.80;;;;;;;11.17;60.23;99807.16;5086674;28;20020;-72
2021/09/23 00:25:36;;;;;;;10.95;9.77;;;;;;;11.21;60.52;99805.31;5091083;28;20032;-72
2021/09/23 00:28:04;;;;;;;12.77;10.13;;;;;;;11.22;60.44;99813.41;5089980;28;20020;-72
2021/09/23 00:30:30;;;;;;;13.10;10.52;;;;;;;11.20;60.67;99806.47;5086364;28;20447;-72
2021/09/23 00:32:56;;;;;;;12.70;10.65;;;;;;;11.15;60.10;99803.88;5086571;28;20039;-72
2021/09/23 00:35:22;;;;;;;13.00;11.02;;;;;;;11.34;59.73;99800.72;5088654;28;20434;-72
2021/09/23 00:37:48;;;;;;;14.05;11.57;;;;;;;11.07;60.55;99806.31;5090357;28;20035;-72
2021/09/23 00:40:16;;;;;;;12.73;10.82;;;;;;;10.95;61.31;99809.81;5086356;28;20070;-71
2021/09/23 00:42:43;;;;;;;12.02;10.40;;;;;;;10.97;61.00;99809.47;5077850;28;20024;-72
2021/09/23 00:45:11;;;;;;;12.73;10.93;;;;;;;10.94;61.18;99808.16;5085731;28;20511;-72
2021/09/23 00:47:37;;;;;;;12.85;10.60;;;;;;;10.96;60.83;99807.81;5088324;28;20020;-72
2021/09/23 00:50:03;;;;;;;13.55;11.48;;;;;;;10.85;61.72;99814.88;5085921;28;20020;-72
2021/09/23 00:52:31;;;;;;;12.93;10.93;;;;;;;10.77;61.96;99811.78;5086295;28;20024;-72
2021/09/23 00:54:57;;;;;;;14.00;11.40;;;;;;;10.75;62.01;99802.88;5083842;28;20115;-74
2021/09/23 00:57:23;;;;;;;12.55;10.85;;;;;;;10.65;61.93;99803.19;5085357;28;20069;-72
2021/09/23 00:59:51;;;;;;;12.40;10.80;;;;;;;10.74;61.42;99801.25;5091191;28;20540;-72
2021/09/23 01:02:17;;;;;;;12.48;10.50;;;;;;;10.75;61.53;99797.28;5088404;28;20213;-74
2021/09/23 01:04:44;;;;;;;12.85;11.32;;;;;;;10.69;61.54;99800.59;5085877;28;20130;-72
2021/09/23 01:07:10;;;;;;;13.45;11.73;;;;;;;10.61;61.67;99797.44;5086937;28;20515;-72
2021/09/23 01:10:02;;;;;;;16.77;11.60;;;;;;;10.52;61.86;99804.97;5087373;28;20039;-71
2021/09/23 01:12:28;;;;;;;13.93;11.32;;;;;;;10.49;61.90;99806.44;5088523;28;20443;-71
2021/09/23 01:14:54;;;;;;;12.02;10.60;;;;;;;10.42;61.99;99803.34;5075633;28;20118;-74
2021/09/23 01:17:20;;;;;;;13.38;11.05;;;;;;;10.47;62.27;99811.56;5086362;28;20046;-72
2021/09/23 01:19:46;;;;;;;13.52;11.07;;;;;;;10.42;61.95;99806.13;5087020;28;20499;-72
2021/09/23 01:22:13;;;;;;;14.50;11.73;;;;;;;10.27;62.26;99809.34;5091208;28;20113;-72
2021/09/23 01:24:39;;;;;;;14.40;12.13;;;;;;;10.16;62.96;99809.66;5081361;28;20063;-72
2021/09/23 01:27:06;;;;;;;15.77;12.05;;;;;;;10.33;62.62;99806.09;5086822;28;20031;-72
2021/09/23 01:29:33;;;;;;;14.32;12.57;;;;;;;10.30;62.31;99815.09;5082342;28;20078;-72
2021/09/23 01:32:01;;;;;;;14.05;12.00;;;;;;;10.25;62.85;99807.69;5087708;28;20024;-72
2021/09/23 01:34:27;;;;;;;15.40;12.23;;;;;;;10.37;62.75;99815.47;5082352;28;20012;-72
2021/09/23 01:36:52;;;;;;;13.32;11.48;;;;;;;10.39;63.05;99807.56;5081693;28;20528;-71
2021/09/23 01:39:23;;;;;;;17.90;12.80;;;;;;;10.37;62.84;99804.28;5086349;28;20036;-72
2021/09/23 01:41:49;;;;;;;13.32;11.43;;;;;;;10.30;63.26;99808.69;5079371;28;20032;-72
2021/09/23 01:44:15;;;;;;;15.93;12.40;;;;;;;10.34;62.79;99809.69;5086790;28;20032;-72
2021/09/23 01:46:44;;;;;;;14.18;12.00;;;;;;;10.35;63.05;99816.91;5091031;28;20544;-72
2021/09/23 01:49:09;;;;;;;15.98;12.73;;;;;;;10.29;63.07;99813.47;5084622;28;20035;-71
2021/09/23 01:51:35;;;;;;;14.93;12.00;;;;;;;10.52;62.76;99805.81;5084191;28;20032;-72
2021/09/23 01:54:00;;;;;;;15.70;12.65;;;;;;;10.53;62.58;99809.44;5087085;28;20113;-72
2021/09/23 01:56:26;;;;;;;14.85;12.07;;;;;;;10.55;62.08;99803.50;5080732;28;20142;-72
2021/09/23 01:58:51;;;;;;;13.73;11.32;;;;;;;10.57;62.47;99801.22;5086656;28;20043;-72
2021/09/23 02:01:17;;;;;;;15.13;11.50;;;;;;;10.63;62.43;99813.91;5089719;28;20047;-72
2021/09/23 02:03:42;;;;;;;14.57;12.63;;;;;;;10.60;62.63;99817.34;5090776;28;20020;-72
2021/09/23 02:06:08;;;;;;;14.27;11.93;;;;;;;10.60;62.20;99812.56;5088217;28;20075;-72
2021/09/23 02:08:33;;;;;;;12.73;11.10;;;;;;;10.61;62.20;99814.22;5090757;28;20012;-72
2021/09/23 02:10:59;;;;;;;12.88;10.50;;;;;;;10.62;62.15;99809.47;5088690;28;20036;-72
2021/09/23 02:13:25;;;;;;;15.30;11.32;;;;;;;10.68;62.32;99813.72;5090490;28;20024;-72
2021/09/23 02:15:50;;;;;;;14.45;11.88;;;;;;;10.66;62.51;99810.44;5087125;28;20024;-72
2021/09/23 02:18:16;;;;;;;13.65;10.63;;;;;;;10.72;62.38;99809.13;5088418;28;20047;-72
2021/09/23 02:20:42;;;;;;;15.50;12.23;;;;;;;10.71;62.25;99810.28;5089010;28;20040;-72
2021/09/23 02:23:08;;;;;;;14.27;12.07;;;;;;;10.69;62.32;99804.19;5086315;28;20022;-72
2021/09/23 02:25:33;;;;;;;13.60;11.18;;;;;;;10.62;62.25;99799.06;5086734;28;20024;-72
2021/09/23 02:27:59;;;;;;;15.48;11.90;;;;;;;10.61;62.75;99796.59;5084499;28;20395;-72
2021/09/23 02:30:24;;;;;;;14.05;11.57;;;;;;;10.62;63.39;99793.47;5086068;28;20032;-72
2021/09/23 02:32:50;;;;;;;14.40;11.30;;;;;;;10.58;63.55;99798.09;5085827;28;20118;-72
2021/09/23 02:35:16;;;;;;;12.73;11.00;;;;;;;10.77;62.53;99803.38;5085877;28;20111;-72
2021/09/23 02:37:42;;;;;;;15.05;11.43;;;;;;;10.80;62.33;99808.31;5084511;28;20484;-72
2021/09/23 02:40:09;;;;;;;16.40;12.48;;;;;;;10.72;62.79;99806.31;5085442;28;20032;-72
2021/09/23 02:42:36;;;;;;;15.77;11.90;;;;;;;10.80;62.51;99804.72;5086016;28;20036;-72
2021/09/23 02:45:04;;;;;;;14.25;11.55;;;;;;;10.89;62.60;99804.69;5085375;28;20030;-72
2021/09/23 02:47:30;;;;;;;15.05;11.98;;;;;;;11.00;61.65;99797.63;5084749;28;20486;-72
2021/09/23 02:49:55;;;;;;;15.23;11.50;;;;;;;10.87;61.61;99796.63;5084763;28;20032;-72
2021/09/23 02:52:21;;;;;;;17.08;11.07;;;;;;;10.90;62.03;99795.97;5085926;28;20028;-72
2021/09/23 02:54:46;;;;;;;16.52;11.20;;;;;;;11.14;60.83;99799.41;5087885;28;20082;-72
2021/09/23 02:57:12;;;;;;;17.02;11.43;;;;;;;11.05;61.16;99803.03;5089033;28;20024;-72
2021/09/23 02:59:38;;;;;;;13.50;10.93;;;;;;;11.01;61.53;99799.25;5089283;28;20115;-72
2021/09/23 03:02:04;;;;;;;15.15;12.18;;;;;;;11.12;61.42;99801.72;5091066;28;20059;-72
2021/09/23 03:04:29;;;;;;;18.95;12.63;;;;;;;11.07;61.37;99800.72;5091996;28;20036;-72
2021/09/23 03:06:55;;;;;;;14.43;11.70;;;;;;;11.10;61.79;99802.06;5093810;28;20024;-72
2021/09/23 03:09:20;;;;;;;14.23;11.80;;;;;;;11.07;61.81;99797.13;5091954;28;20121;-72
2021/09/23 03:11:46;;;;;;;16.20;12.75;;;;;;;11.10;62.00;99802.06;5091908;28;20028;-72
2021/09/23 03:14:11;;;;;;;15.70;11.88;;;;;;;11.16;61.85;99794.31;5091808;28;20024;-72
2021/09/23 03:16:37;;;;;;;16.98;13.07;;;;;;;11.25;61.90;99797.94;5090810;28;20036;-72
2021/09/23 03:19:03;;;;;;;19.23;12.90;;;;;;;11.08;62.45;99799.56;5093741;28;20028;-72
2021/09/23 03:21:28;;;;;;;16.38;11.80;;;;;;;11.13;62.41;99806.19;5086564;28;20111;-72
2021/09/23 03:23:54;;;;;;;13.45;11.13;;;;;;;11.20;61.81;99800.88;5089153;28;20032;-72
2021/09/23 03:26:19;;;;;;;17.00;12.27;;;;;;;11.05;62.36;99799.44;5089016;28;20123;-72
2021/09/23 03:28:45;;;;;;;14.50;11.55;;;;;;;11.03;62.39;99796.94;5088933;28;20028;-72
2021/09/23 03:31:10;;;;;;;14.40;12.07;;;;;;;11.23;62.01;99800.25;5087266;28;20024;-72
2021/09/23 03:33:36;;;;;;;15.43;11.30;;;;;;;11.13;62.22;99794.97;5088879;28;20038;-72
2021/09/23 03:36:02;;;;;;;15.63;11.65;;;;;;;11.12;61.80;99798.94;5088401;28;20031;-72
2021/09/23 03:38:27;;;;;;;17.67;10.98;;;;;;;11.05;62.20;99805.84;5088572;28;20142;-72
2021/09/23 03:40:53;;;;;;;17.00;12.07;;;;;;;11.08;62.41;99799.56;5087838;28;20032;-72
2021/09/23 03:43:19;;;;;;;17.88;12.23;;;;;;;11.04;62.21;99803.34;5089450;28;20717;-72
2021/09/23 03:45:47;;;;;;;14.93;11.15;;;;;;;11.04;62.34;99804.19;5084287;28;20463;-72
2021/09/23 03:48:12;;;;;;;15.85;11.32;;;;;;;11.16;62.30;99797.94;5081857;28;20434;-72
2021/09/23 03:50:38;;;;;;;18.02;11.50;;;;;;;11.11;62.04;99805.69;5088590;28;20028;-72
2021/09/23 03:53:04;;;;;;;13.75;10.88;;;;;;;11.20;61.43;99801.72;5081368;28;20024;-72
2021/09/23 03:55:30;;;;;;;14.10;10.70;;;;;;;11.22;61.50;99804.16;5092293;28;20031;-72
2021/09/23 03:57:55;;;;;;;21.90;12.27;;;;;;;11.16;61.95;99805.50;5087922;28;20067;-72
2021/09/23 04:00:22;;;;;;;15.43;10.70;;;;;;;11.35;61.11;99803.19;5091936;28;20410;-72
2021/09/23 04:02:48;;;;;;;13.88;10.18;;;;;;;11.22;61.73;99815.38;5079281;28;20177;-72
2021/09/23 04:05:14;;;;;;;14.77;11.00;;;;;;;11.04;62.49;99804.19;5089903;28;20486;-72
2021/09/23 04:07:40;;;;;;;14.05;11.07;;;;;;;11.03;62.44;99810.13;5078596;28;20108;-72
2021/09/23 04:10:07;;;;;;;11.77;9.32;;;;;;;11.17;62.14;99819.19;5092223;28;20062;-72
2021/09/23 04:12:33;;;;;;;12.82;10.10;;;;;;;11.17;62.42;99812.75;5091938;28;20038;-72
2021/09/23 04:14:59;;;;;;;12.55;9.70;;;;;;;11.01;62.41;99821.66;5087764;28;20035;-72
2021/09/23 04:17:24;;;;;;;16.60;10.77;;;;;;;11.00;63.09;99819.19;5088582;28;20360;-72
2021/09/23 04:19:50;;;;;;;17.15;9.95;;;;;;;10.92;63.06;99829.22;5090868;28;20020;-72
2021/09/23 04:22:16;;;;;;;16.73;9.68;;;;;;;10.94;63.23;99821.31;5088070;28;20419;-72
2021/09/23 04:24:41;;;;;;;13.35;10.23;;;;;;;10.98;63.40;99825.13;5077030;28;20028;-72
2021/09/23 04:27:07;;;;;;;17.50;10.85;;;;;;;11.01;63.16;99815.22;5079211;28;20760;-72
2021/09/23 04:29:33;;;;;;;18.52;11.15;;;;;;;10.94;63.43;99826.91;5071721;28;20116;-72
2021/09/23 04:32:00;;;;;;;17.27;12.18;;;;;;;10.94;63.86;99826.91;5077397;28;20123;-72
2021/09/23 04:34:25;;;;;;;16.10;11.48;;;;;;;10.95;63.12;99829.41;5073891;28;20385;-72
2021/09/23 04:36:51;;;;;;;17.55;11.38;;;;;;;10.92;63.65;99826.44;5079431;28;20081;-72
2021/09/23 04:39:17;;;;;;;13.73;11.50;;;;;;;10.90;63.55;99831.53;5072872;28;20028;-72
2021/09/23 04:41:43;;;;;;;31.45;13.43;;;;;;;10.95;63.51;99831.34;5083829;28;20557;-72
2021/09/23 04:44:09;;;;;;;22.52;14.07;;;;;;;11.03;63.52;99832.50;5083100;28;20103;-72
2021/09/23 04:46:34;;;;;;;23.17;13.23;;;;;;;11.12;63.44;99838.13;5088812;28;20035;-72
2021/09/23 04:49:00;;;;;;;23.67;15.45;;;;;;;11.08;62.78;99835.97;5086753;28;20032;-72
2021/09/23 04:51:27;;;;;;;37.53;21.35;;;;;;;11.20;62.57;99851.28;5083773;28;20115;-72
2021/09/23 04:53:53;;;;;;;56.63;33.08;;;;;;;11.35;62.50;99849.97;5081964;28;20104;-71
2021/09/23 04:56:19;;;;;;;77.90;40.17;;;;;;;11.38;62.71;99857.69;5079128;28;20023;-72
2021/09/23 04:58:45;;;;;;;102.60;53.33;;;;;;;11.46;62.41;99859.66;5081678;28;20460;-72
2021/09/23 05:01:11;;;;;;;140.18;76.35;;;;;;;11.52;62.43;99863.97;5085884;28;20059;-70
2021/09/23 05:03:36;;;;;;;54.20;29.33;;;;;;;11.63;61.82;99877.59;5076284;28;20032;-73
2021/09/23 05:06:02;;;;;;;27.25;16.52;;;;;;;11.68;61.83;99876.59;5086793;28;20030;-69
2021/09/23 05:08:27;;;;;;;38.40;17.33;;;;;;;11.77;61.58;99885.81;5090784;28;20019;-70
2021/09/23 05:10:53;;;;;;;28.58;17.73;;;;;;;11.83;61.23;99875.25;5086566;28;20026;-70
2021/09/23 05:13:18;;;;;;;65.15;27.60;;;;;;;11.94;60.77;99885.78;5083473;28;20578;-71
2021/09/23 05:15:44;;;;;;;52.15;29.25;;;;;;;11.99;60.20;99886.75;5089783;28;20020;-72
2021/09/23 05:18:11;;;;;;;115.80;57.42;;;;;;;12.13;60.19;99883.78;5090888;28;20059;-69
2021/09/23 05:20:36;;;;;;;46.72;29.80;;;;;;;12.19;59.18;99888.03;5083249;28;20098;-70
2021/09/23 05:23:03;;;;;;;35.55;21.17;;;;;;;12.19;59.22;99880.47;5084378;28;20390;-70
2021/09/23 05:25:28;;;;;;;30.05;21.48;;;;;;;12.17;59.29;99891.16;5077162;28;20024;-70
2021/09/23 05:27:55;;;;;;;26.75;19.60;;;;;;;12.30;59.44;99899.69;5073494;28;20525;-70
2021/09/23 05:30:20;;;;;;;128.10;68.85;;;;;;;12.27;59.20;99894.75;5085893;28;20058;-70
2021/09/23 05:32:46;;;;;;;283.15;148.10;;;;;;;12.38;59.32;99898.84;5085383;28;20531;-70
2021/09/23 05:35:12;;;;;;;83.03;39.95;;;;;;;12.49;58.70;99894.50;5077931;28;20051;-70
2021/09/23 05:37:38;;;;;;;73.50;31.17;;;;;;;12.70;58.14;99902.16;5087134;28;20039;-70
2021/09/23 05:40:04;;;;;;;19.77;12.10;;;;;;;12.77;58.05;99901.63;5078114;28;20028;-71
2021/09/23 05:42:30;;;;;;;50.67;26.17;;;;;;;12.83;57.70;99902.25;5090446;28;20030;-71
2021/09/23 05:44:55;;;;;;;23.70;15.30;;;;;;;12.87;57.84;99901.22;5087123;28;21358;-71
2021/09/23 05:47:21;;;;;;;21.30;13.63;;;;;;;13.04;57.19;99908.72;5085021;28;20016;-71
2021/09/23 05:49:46;;;;;;;22.70;14.75;;;;;;;13.06;57.08;99912.00;5091085;28;20038;-72
2021/09/23 05:52:12;;;;;;;42.20;20.23;;;;;;;13.18;56.60;99916.84;5082547;28;20028;-72
2021/09/23 05:54:37;;;;;;;12.38;7.85;;;;;;;13.44;55.32;99915.03;5075186;28;20065;-72
2021/09/23 05:57:03;;;;;;;6.35;5.05;;;;;;;13.52;54.85;99922.59;5079775;28;20020;-72
2021/09/23 05:59:28;;;;;;;7.75;5.10;;;;;;;13.33;54.58;99925.81;5090612;28;20024;-72
2021/09/23 06:01:55;;;;;;;9.60;6.22;;;;;;;13.28;55.04;99924.06;5090481;28;20075;-73
2021/09/23 06:04:21;;;;;;;8.90;6.47;;;;;;;13.27;55.38;99932.81;5081078;28;20442;-72
2021/09/23 06:06:48;;;;;;;17.23;10.13;;;;;;;13.28;55.64;99929.69;5083476;28;20030;-72
2021/09/23 06:09:13;;;;;;;9.70;6.22;;;;;;;13.24;55.38;99939.13;5080421;28;20066;-72
2021/09/23 06:11:39;;;;;;;9.82;5.22;;;;;;;13.41;55.13;99938.19;5079056;28;20067;-71
2021/09/23 06:14:05;;;;;;;6.72;4.10;;;;;;;13.22;55.39;99931.03;5078080;28;20031;-73
2021/09/23 06:16:31;;;;;;;7.18;4.68;;;;;;;13.40;54.80;99936.53;5079230;28;20111;-73
2021/09/23 06:18:57;;;;;;;7.30;3.95;;;;;;;13.21;55.39;99937.81;5071775;28;20111;-72
2021/09/23 06:21:22;;;;;;;6.82;4.82;;;;;;;13.27;55.67;99944.91;5073971;28;20082;-72
2021/09/23 06:23:48;;;;;;;9.20;3.75;;;;;;;13.27;54.97;99944.91;5085558;28;20025;-73
2021/09/23 06:26:13;;;;;;;4.70;4.18;;;;;;;13.44;55.03;99954.38;5070992;28;20684;-72
2021/09/23 06:28:39;;;;;;;6.55;4.25;;;;;;;13.57;54.23;99950.47;5079029;28;20039;-74
2021/09/23 06:31:05;;;;;;;3.90;3.42;;;;;;;13.69;53.73;99949.69;5079159;28;20108;-71
2021/09/23 06:33:30;;;;;;;4.35;3.95;;;;;;;13.83;53.56;99945.78;5087563;28;20051;-71
2021/09/23 06:35:56;;;;;;;5.45;3.97;;;;;;;13.79;53.55;99953.25;5089745;28;20035;-69
2021/09/23 06:38:21;;;;;;;5.22;3.92;;;;;;;13.78;53.42;99946.81;5093582;28;20023;-70
2021/09/23 06:40:47;;;;;;;6.97;3.72;;;;;;;13.74;53.48;99951.47;5075672;28;20402;-70
2021/09/23 06:43:13;;;;;;;4.97;4.13;;;;;;;13.89;52.81;99955.63;5092008;28;20062;-70
2021/09/23 06:45:38;;;;;;;5.22;3.90;;;;;;;13.72;53.41;99953.81;5082134;28;20574;-70
2021/09/23 06:48:04;;;;;;;6.25;5.47;;;;;;;13.90;52.85;99954.47;5084547;28;20481;-70
2021/09/23 06:50:30;;;;;;;9.73;5.22;;;;;;;13.95;53.04;99957.06;5079902;28;20026;-69
2021/09/23 06:52:56;;;;;;;9.00;6.82;;;;;;;14.07;52.73;99955.47;5081633;28;20032;-72
2021/09/23 06:55:21;;;;;;;8.30;5.97;;;;;;;14.07;52.42;99961.09;5093025;28;20043;-70
2021/09/23 06:57:46;;;;;;;5.10;3.65;;;;;;;14.03;53.00;99953.34;5075379;28;20073;-70
2021/09/23 07:00:12;;;;;;;5.65;4.03;;;;;;;14.03;52.81;99956.16;5089149;28;20503;-70
2021/09/23 07:02:38;;;;;;;4.13;3.72;;;;;;;14.06;52.28;99956.63;5092729;28;20074;-71
2021/09/23 07:05:05;;;;;;;7.63;3.85;;;;;;;14.44;52.33;99961.19;5083748;28;20059;-71
2021/09/23 07:07:30;;;;;;;5.75;3.38;;;;;;;14.59;51.17;99960.50;5087689;28;20020;-70
2021/09/23 07:09:56;;;;;;;3.63;3.33;;;;;;;14.50;51.29;99953.34;5093703;28;20093;-71
2021/09/23 07:12:21;;;;;;;3.63;3.33;;;;;;;14.56;50.03;99951.91;5089766;28;20039;-71
2021/09/23 07:14:47;;;;;;;4.10;3.13;;;;;;;14.72;50.23;99960.53;5086781;28;20051;-74
2021/09/23 07:17:13;;;;;;;4.35;3.58;;;;;;;14.64;50.26;99961.41;5091599;28;20032;-72
2021/09/23 07:19:38;;;;;;;3.67;2.88;;;;;;;14.56;49.88;99960.38;5081875;28;20028;-72
2021/09/23 07:22:05;;;;;;;4.13;3.72;;;;;;;14.45;50.29;99962.81;5093138;28;20489;-71
2021/09/23 07:24:30;;;;;;;4.75;3.13;;;;;;;14.43;50.44;99960.34;5088487;28;20499;-71
2021/09/23 07:26:56;;;;;;;5.95;3.42;;;;;;;14.48;50.62;99966.91;5083420;28;20105;-72
2021/09/23 07:29:22;;;;;;;5.22;4.07;;;;;;;14.46;49.91;99965.28;5090584;28;20047;-70
2021/09/23 07:31:47;;;;;;;5.25;3.40;;;;;;;14.55;49.60;99955.91;5093149;28;20027;-71
2021/09/23 07:34:13;;;;;;;3.17;2.88;;;;;;;14.50;49.50;99964.59;5078224;28;20032;-69
2021/09/23 07:36:39;;;;;;;7.03;3.75;;;;;;;14.71;49.51;99964.50;5081651;28;21447;-70
2021/09/23 07:39:07;;;;;;;4.30;2.70;;;;;;;14.95;48.54;99962.88;5090404;28;20035;-69
2021/09/23 07:41:37;;;;;;;5.13;2.65;;;;;;;14.96;47.79;99964.53;5082535;28;20020;-69
2021/09/23 07:44:04;;;;;;;3.30;2.80;;;;;;;15.12;47.60;99956.19;5083864;28;20483;-69
2021/09/23 07:46:29;;;;;;;3.17;2.88;;;;;;;15.18;47.83;99968.03;5092677;28;20383;-69
2021/09/23 07:48:55;;;;;;;5.20;3.30;;;;;;;15.35;47.29;99958.50;5082637;28;20038;-68
2021/09/23 07:51:21;;;;;;;3.30;3.00;;;;;;;15.51;47.36;99962.19;5083033;28;20031;-70
2021/09/23 07:53:46;;;;;;;4.10;3.60;;;;;;;15.35;47.31;99962.09;5088114;28;20024;-70
2021/09/23 07:56:12;;;;;;;4.85;3.50;;;;;;;15.35;47.27;99966.94;5076820;28;20035;-70
2021/09/23 07:58:37;;;;;;;4.18;3.58;;;;;;;15.45;48.02;99963.63;5090213;28;20407;-72
2021/09/23 08:01:03;;;;;;;3.30;3.00;;;;;;;15.35;47.66;99964.94;5075387;28;20471;-70
2021/09/23 08:03:28;;;;;;;4.68;3.00;;;;;;;15.52;47.07;99958.19;5087757;28;20039;-70
2021/09/23 08:05:54;;;;;;;4.18;3.30;;;;;;;15.66;47.60;99959.78;5083335;28;20032;-69
2021/09/23 08:08:20;;;;;;;4.35;3.20;;;;;;;15.68;46.63;99954.59;5082120;28;20031;-70
2021/09/23 08:10:45;;;;;;;3.10;2.80;;;;;;;15.66;46.88;99963.44;5084342;28;20546;-72
2021/09/23 08:13:10;;;;;;;3.22;2.92;;;;;;;15.58;46.92;99964.41;5081247;28;20016;-71
2021/09/23 08:15:36;;;;;;;3.47;3.17;;;;;;;15.51;46.87;99956.56;5088564;28;20459;-72
2021/09/23 08:18:05;;;;;;;3.58;3.17;;;;;;;15.49;47.09;99952.44;5091124;28;20024;-70
2021/09/23 08:20:30;;;;;;;4.65;2.90;;;;;;;15.47;46.74;99951.97;5086934;28;20019;-70
2021/09/23 08:22:56;;;;;;;5.50;3.08;;;;;;;15.53;45.66;99956.22;5086999;28;20528;-70
2021/09/23 08:25:21;;;;;;;4.60;3.10;;;;;;;15.54;46.00;99953.00;5085013;28;20024;-70
2021/09/23 08:27:47;;;;;;;4.60;3.40;;;;;;;15.56;45.06;99949.84;5085237;28;20123;-70
2021/09/23 08:30:13;;;;;;;3.38;3.08;;;;;;;15.53;45.22;99954.19;5085300;28;20043;-69
2021/09/23 08:32:38;;;;;;;3.28;2.67;;;;;;;15.48;44.21;99951.63;5087202;28;20409;-70
2021/09/23 08:35:08;;;;;;;2.80;2.55;;;;;;;15.30;44.21;99951.91;5082700;28;20024;-68
2021/09/23 08:37:35;;;;;;;3.20;2.65;;;;;;;15.38;43.52;99952.13;5086196;28;20086;-69
2021/09/23 08:40:00;;;;;;;3.35;3.05;;;;;;;15.35;44.16;99950.03;5084744;28;20032;-69
2021/09/23 08:42:28;;;;;;;2.72;2.53;;;;;;;15.46;44.38;99954.00;5086032;28;20404;-69
2021/09/23 08:44:56;;;;;;;3.15;2.85;;;;;;;15.49;43.80;99956.09;5084998;28;20085;-69
2021/09/23 08:47:23;;;;;;;3.10;2.80;;;;;;;15.41;44.68;99957.88;5084472;28;20050;-71
2021/09/23 08:49:48;;;;;;;3.08;2.78;;;;;;;15.54;45.31;99955.84;5087247;28;20024;-71
2021/09/23 08:52:14;;;;;;;4.93;3.25;;;;;;;15.62;44.28;99944.78;5085310;28;20426;-70
2021/09/23 08:54:39;;;;;;;3.22;2.92;;;;;;;15.55;44.28;99945.38;5086903;28;20716;-71
2021/09/23 08:57:06;;;;;;;8.93;3.28;;;;;;;15.71;43.84;99939.81;5083792;28;20099;-74
2021/09/23 08:59:32;;;;;;;3.70;3.40;;;;;;;16.03;44.20;99937.09;5090133;28;20099;-72
2021/09/23 09:01:58;;;;;;;4.82;3.92;;;;;;;16.24;42.68;99944.50;5089856;28;20097;-72
2021/09/23 09:04:33;;;;;;;6.55;2.72;;;;;;;16.33;41.87;99942.34;5077363;28;20077;-72
2021/09/23 09:07:03;;;;;;;5.15;2.78;;;;;;;16.34;40.96;99940.31;5072133;28;20391;-72
2021/09/23 09:09:29;;;;;;;3.63;2.75;;;;;;;16.35;40.35;99941.97;5085542;28;20016;-72
2021/09/23 09:11:56;;;;;;;7.95;2.70;;;;;;;16.34;40.51;99938.34;5081984;28;20710;-71
2021/09/23 09:14:31;;;;;;;5.20;2.60;;;;;;;16.36;40.32;99933.13;5081806;28;20437;-70
2021/09/23 09:17:04;;;;;;;3.90;2.65;;;;;;;16.59;39.32;99929.69;5079899;28;20484;-71
2021/09/23 09:19:45;;;;;;;4.35;2.40;;;;;;;16.72;38.74;99930.41;5078231;28;20017;-71
2021/09/23 09:22:18;;;;;;;3.95;1.90;;;;;;;16.70;38.12;99929.94;5090066;28;20035;-72
2021/09/23 09:24:54;;;;;;;4.28;2.55;;;;;;;16.91;38.50;99917.53;5091045;28;20518;-72
2021/09/23 09:27:27;;;;;;;2.63;2.33;;;;;;;17.04;38.72;99932.41;5088356;28;20513;-72
2021/09/23 09:29:58;;;;;;;2.85;2.35;;;;;;;17.09;38.14;99926.44;5101501;28;20068;-72
2021/09/23 09:32:38;;;;;;;;;;;;;;;17.06;38.13;99932.84;5086501;28;20410;-72
2021/09/23 09:35:05;;;;;;;3.42;3.10;;;;;;;16.92;38.41;99928.47;5085901;28;19934;-72
2021/09/23 09:37:32;;;;;;;2.58;2.38;;;;;;;16.91;39.00;99928.81;5076322;28;20074;-71
2021/09/23 09:39:58;;;;;;;2.83;2.53;;;;;;;17.20;38.36;99924.69;5085623;28;20062;-72
2021/09/23 09:42:27;;;;;;;3.80;3.03;;;;;;;17.22;37.20;99913.81;5090827;28;20109;-72
2021/09/23 09:44:57;;;;;;;4.38;2.47;;;;;;;17.37;36.60;99902.81;5089792;28;20077;-72
2021/09/23 09:47:30;;;;;;;3.67;2.42;;;;;;;17.60;36.18;99902.91;5087986;28;20012;-72
2021/09/23 09:49:57;;;;;;;3.35;2.75;;;;;;;17.75;35.87;99892.72;5090548;28;20391;-72
2021/09/23 09:52:31;;;;;;;3.22;2.55;;;;;;;18.06;36.27;99899.38;5079187;28;20095;-72
2021/09/23 09:55:09;;;;;;;2.65;2.45;;;;;;;18.11;35.55;99892.59;5081517;28;20124;-72
2021/09/23 09:57:43;;;;;;;2.55;2.25;;;;;;;17.95;35.10;99896.34;5086068;28;20068;-72
2021/09/23 10:00:10;;;;;;;2.53;2.33;;;;;;;17.91;34.72;99892.59;5083782;28;20081;-72
2021/09/23 10:02:36;;;;;;;2.78;2.58;;;;;;;17.95;34.84;99889.84;5087461;28;20122;-73
2021/09/23 10:05:02;;;;;;;3.03;2.53;;;;;;;18.07;36.10;99886.88;5085989;28;20023;-74
2021/09/23 10:07:30;;;;;;;2.65;2.25;;;;;;;18.20;34.98;99872.53;5089353;28;20031;-72
2021/09/23 10:09:57;;;;;;;4.50;2.70;;;;;;;18.26;34.98;99876.69;5088178;28;20035;-74
2021/09/23 10:12:25;;;;;;;6.80;2.20;;;;;;;18.28;35.23;99874.31;5087527;28;20047;-70
2021/09/23 10:14:51;;;;;;;3.60;2.70;;;;;;;18.30;35.19;99876.75;5088645;28;20138;-71
2021/09/23 10:17:17;;;;;;;6.47;2.63;;;;;;;18.46;34.15;99885.09;5088847;28;20035;-70
2021/09/23 10:19:43;;;;;;;2.58;2.25;;;;;;;18.48;34.01;99885.56;5089415;28;20028;-69
2021/09/23 10:22:13;;;;;;;2.45;2.25;;;;;;;18.73;33.03;99873.81;5089288;28;20027;-69
2021/09/23 10:24:43;;;;;;;3.40;2.33;;;;;;;18.57;33.62;99888.13;5087802;28;20050;-68
2021/09/23 10:29:55;;;;;;;2.65;2.45;;;;;;;18.57;33.29;99873.97;5089911;28;20065;-69
2021/09/23 10:32:22;;;;;;;4.72;2.28;;;;;;;18.70;33.54;99866.06;5086388;28;20024;-70
2021/09/23 10:34:51;;;;;;;2.63;2.25;;;;;;;18.66;34.04;99866.03;5088197;28;20028;-69
2021/09/23 10:37:18;;;;;;;7.30;2.58;;;;;;;18.83;33.73;99866.66;5088849;28;20391;-70
2021/09/23 10:39:45;;;;;;;4.97;2.10;;;;;;;18.74;33.01;99864.13;5104615;28;20114;-70
2021/09/23 10:42:20;;;;;;;2.80;2.10;;;;;;;18.97;32.32;99844.19;5089264;28;20028;-71
2021/09/23 10:44:47;;;;;;;9.05;2.35;;;;;;;19.05;32.96;99853.63;5092755;28;20024;-71
2021/09/23 10:47:12;;;;;;;2.85;2.58;;;;;;;18.93;32.76;99855.47;5089348;28;20024;-71
2021/09/23 10:49:38;;;;;;;2.60;2.40;;;;;;;19.02;33.13;99848.75;5088018;28;20037;-70
2021/09/23 10:52:04;;;;;;;2.60;2.15;;;;;;;19.06;33.13;99846.78;5087056;28;20104;-71
2021/09/23 10:54:29;;;;;;;4.00;2.30;;;;;;;19.17;32.85;99841.25;5082019;28;20027;-71
2021/09/23 10:56:56;;;;;;;5.13;2.47;;;;;;;19.24;32.66;99844.16;5083962;28;20957;-71
2021/09/23 10:59:25;;;;;;;3.50;2.67;;;;;;;19.35;32.16;99842.28;5081567;28;20663;-71
2021/09/23 11:01:51;;;;;;;2.40;2.20;;;;;;;19.34;31.89;99840.66;5084333;28;20048;-71
2021/09/23 11:04:16;;;;;;;7.07;2.78;;;;;;;19.48;32.24;99842.03;5074448;28;20049;-72
2021/09/23 11:06:42;;;;;;;3.55;2.80;;;;;;;19.38;31.25;99835.03;5087698;28;20016;-71
2021/09/23 11:09:20;;;;;;;4.18;2.67;;;;;;;19.37;32.00;99827.72;5086335;28;20103;-71
2021/09/23 11:11:50;;;;;;;4.10;2.30;;;;;;;19.62;32.13;99833.72;5084965;28;20093;-71
2021/09/23 11:14:16;;;;;;;;;;;;;;;19.48;30.77;99825.84;5086940;28;20032;-71
2021/09/23 11:16:52;;;;;;;6.60;2.15;;;;;;;19.60;31.60;99826.78;5085862;28;19916;-71
2021/09/23 11:19:20;;;;;;;3.80;2.50;;;;;;;19.66;31.55;99813.06;5087461;28;20390;-71
2021/09/23 11:21:48;;;;;;;3.63;2.60;;;;;;;19.67;30.51;99820.38;5083100;28;20121;-71
2021/09/23 11:24:15;;;;;;;2.92;2.30;;;;;;;19.58;30.91;99815.81;5078150;28;20020;-71